sensor_id;sensor_type;location;lat;lon;timestamp;P1;durP1;ratioP1;P2;durP2;ratioP2
42802;SDS011;28447;48.682;9.022;2022-07-21T00:02:16;0.90;;;0.80;;
42802;SDS011;28447;48.682;9.022;2022-07-21T00:04:41;0.90;;;0.80;;
42802;SDS011;28447;48.682;9.022;2022-07-21T00:07:07;1.87;;;1.60;;
42802;SDS011;28447;48.682;9.022;2022-07-21T00:09:33;1.17;;;0.93;;
42802;SDS011;28447;48.682;9.022;2022-07-21T00:12:00;1.60;;;1.50;;
42802;SDS011;28447;48.682;9.022;2022-07-21T00:14:27;1.27;;;1.17;;
42802;SDS011;28447;48.682;9.022;2022-07-21T00:16:53;0.90;;;0.70;;
42802;SDS011;28447;48.682;9.022;2022-07-21T00:19:18;1.10;;;1.00;;
42802;SDS011;28447;48.682;9.022;2022-07-21T00:21:44;1.30;;;1.20;;
42802;SDS011;28447;48.682;9.022;2022-07-21T00:24:10;1.00;;;0.90;;
42802;SDS011;28447;48.682;9.022;2022-07-21T00:26:36;0.90;;;0.80;;
42802;SDS011;28447;48.682;9.022;2022-07-21T00:29:02;2.03;;;1.93;;
42802;SDS011;28447;48.682;9.022;2022-07-21T00:31:28;1.23;;;1.10;;
42802;SDS011;28447;48.682;9.022;2022-07-21T00:33:53;1.40;;;1.30;;
42802;SDS011;28447;48.682;9.022;2022-07-21T00:36:20;1.67;;;1.30;;
42802;SDS011;28447;48.682;9.022;2022-07-21T00:38:46;1.33;;;1.20;;
42802;SDS011;28447;48.682;9.022;2022-07-21T00:41:11;1.53;;;1.23;;
42802;SDS011;28447;48.682;9.022;2022-07-21T00:43:40;1.00;;;0.90;;
42802;SDS011;28447;48.682;9.022;2022-07-21T00:46:06;1.70;;;1.47;;
42802;SDS011;28447;48.682;9.022;2022-07-21T00:48:31;1.00;;;0.90;;
42802;SDS011;28447;48.682;9.022;2022-07-21T00:50:57;0.90;;;0.80;;
42802;SDS011;28447;48.682;9.022;2022-07-21T00:53:23;0.90;;;0.80;;
42802;SDS011;28447;48.682;9.022;2022-07-21T00:55:49;2.00;;;1.33;;
42802;SDS011;28447;48.682;9.022;2022-07-21T00:58:15;1.00;;;0.90;;
42802;SDS011;28447;48.682;9.022;2022-07-21T01:00:41;1.40;;;1.30;;
42802;SDS011;28447;48.682;9.022;2022-07-21T01:03:07;1.03;;;0.93;;
42802;SDS011;28447;48.682;9.022;2022-07-21T01:05:33;0.90;;;0.70;;
42802;SDS011;28447;48.682;9.022;2022-07-21T01:08:01;1.73;;;1.37;;
42802;SDS011;28447;48.682;9.022;2022-07-21T01:10:27;0.90;;;0.70;;
42802;SDS011;28447;48.682;9.022;2022-07-21T01:12:54;0.90;;;0.73;;
42802;SDS011;28447;48.682;9.022;2022-07-21T01:15:20;1.00;;;0.90;;
42802;SDS011;28447;48.682;9.022;2022-07-21T01:17:47;1.03;;;0.87;;
42802;SDS011;28447;48.682;9.022;2022-07-21T01:20:17;0.90;;;0.80;;
42802;SDS011;28447;48.682;9.022;2022-07-21T01:22:46;1.33;;;1.00;;
42802;SDS011;28447;48.682;9.022;2022-07-21T01:25:16;1.00;;;0.90;;
42802;SDS011;28447;48.682;9.022;2022-07-21T01:27:43;0.90;;;0.80;;
42802;SDS011;28447;48.682;9.022;2022-07-21T01:30:09;0.90;;;0.70;;
42802;SDS011;28447;48.682;9.022;2022-07-21T01:32:36;4.70;;;2.60;;
42802;SDS011;28447;48.682;9.022;2022-07-21T01:35:03;1.33;;;1.20;;
42802;SDS011;28447;48.682;9.022;2022-07-21T01:37:30;1.13;;;1.03;;
42802;SDS011;28447;48.682;9.022;2022-07-21T01:39:56;1.57;;;1.20;;
42802;SDS011;28447;48.682;9.022;2022-07-21T01:42:40;3.43;;;2.93;;
42802;SDS011;28447;48.682;9.022;2022-07-21T01:45:06;5.30;;;4.30;;
42802;SDS011;28447;48.682;9.022;2022-07-21T01:47:32;19.57;;;16.37;;
42802;SDS011;28447;48.682;9.022;2022-07-21T01:49:58;21.40;;;15.37;;
42802;SDS011;28447;48.682;9.022;2022-07-21T01:52:24;22.20;;;15.40;;
42802;SDS011;28447;48.682;9.022;2022-07-21T01:54:50;22.27;;;16.30;;
42802;SDS011;28447;48.682;9.022;2022-07-21T01:57:16;21.83;;;15.80;;
42802;SDS011;28447;48.682;9.022;2022-07-21T01:59:42;23.63;;;15.97;;
42802;SDS011;28447;48.682;9.022;2022-07-21T02:02:09;25.30;;;15.70;;
42802;SDS011;28447;48.682;9.022;2022-07-21T02:04:35;22.83;;;14.20;;
42802;SDS011;28447;48.682;9.022;2022-07-21T02:07:01;21.50;;;15.17;;
42802;SDS011;28447;48.682;9.022;2022-07-21T02:09:27;23.07;;;15.70;;
42802;SDS011;28447;48.682;9.022;2022-07-21T02:11:53;20.00;;;14.63;;
42802;SDS011;28447;48.682;9.022;2022-07-21T02:14:19;20.00;;;14.90;;
42802;SDS011;28447;48.682;9.022;2022-07-21T02:16:45;19.30;;;13.90;;
42802;SDS011;28447;48.682;9.022;2022-07-21T02:19:11;17.13;;;14.17;;
42802;SDS011;28447;48.682;9.022;2022-07-21T02:21:37;20.63;;;13.80;;
42802;SDS011;28447;48.682;9.022;2022-07-21T02:24:02;19.43;;;14.00;;
42802;SDS011;28447;48.682;9.022;2022-07-21T02:26:29;23.20;;;14.37;;
42802;SDS011;28447;48.682;9.022;2022-07-21T02:28:54;21.23;;;13.67;;
42802;SDS011;28447;48.682;9.022;2022-07-21T02:31:20;14.90;;;13.30;;
42802;SDS011;28447;48.682;9.022;2022-07-21T02:33:45;19.17;;;13.03;;
42802;SDS011;28447;48.682;9.022;2022-07-21T02:36:11;15.13;;;12.53;;
42802;SDS011;28447;48.682;9.022;2022-07-21T02:38:37;20.50;;;14.70;;
42802;SDS011;28447;48.682;9.022;2022-07-21T02:41:03;15.40;;;12.10;;
42802;SDS011;28447;48.682;9.022;2022-07-21T02:43:29;17.77;;;13.30;;
42802;SDS011;28447;48.682;9.022;2022-07-21T02:45:54;17.17;;;13.23;;
42802;SDS011;28447;48.682;9.022;2022-07-21T02:48:20;15.30;;;11.93;;
42802;SDS011;28447;48.682;9.022;2022-07-21T02:50:46;16.40;;;12.40;;
42802;SDS011;28447;48.682;9.022;2022-07-21T02:53:13;19.87;;;13.20;;
42802;SDS011;28447;48.682;9.022;2022-07-21T02:55:43;21.30;;;13.77;;
42802;SDS011;28447;48.682;9.022;2022-07-21T02:58:10;17.30;;;13.53;;
42802;SDS011;28447;48.682;9.022;2022-07-21T03:00:38;20.00;;;13.00;;
42802;SDS011;28447;48.682;9.022;2022-07-21T03:03:05;17.47;;;13.13;;
42802;SDS011;28447;48.682;9.022;2022-07-21T03:05:32;17.17;;;14.20;;
42802;SDS011;28447;48.682;9.022;2022-07-21T03:07:58;17.80;;;14.17;;
42802;SDS011;28447;48.682;9.022;2022-07-21T03:10:24;18.57;;;14.20;;
42802;SDS011;28447;48.682;9.022;2022-07-21T03:12:49;21.03;;;13.47;;
42802;SDS011;28447;48.682;9.022;2022-07-21T03:15:15;22.67;;;15.00;;
42802;SDS011;28447;48.682;9.022;2022-07-21T03:17:41;24.90;;;14.30;;
42802;SDS011;28447;48.682;9.022;2022-07-21T03:20:07;21.30;;;15.30;;
42802;SDS011;28447;48.682;9.022;2022-07-21T03:22:33;24.33;;;14.50;;
42802;SDS011;28447;48.682;9.022;2022-07-21T03:24:59;19.67;;;15.30;;
42802;SDS011;28447;48.682;9.022;2022-07-21T03:27:25;19.87;;;13.90;;
42802;SDS011;28447;48.682;9.022;2022-07-21T03:29:50;19.13;;;14.60;;
42802;SDS011;28447;48.682;9.022;2022-07-21T03:32:16;20.30;;;15.67;;
42802;SDS011;28447;48.682;9.022;2022-07-21T03:34:42;21.20;;;14.67;;
42802;SDS011;28447;48.682;9.022;2022-07-21T03:37:09;18.93;;;14.17;;
42802;SDS011;28447;48.682;9.022;2022-07-21T03:39:35;19.60;;;14.50;;
42802;SDS011;28447;48.682;9.022;2022-07-21T03:42:01;19.47;;;15.47;;
42802;SDS011;28447;48.682;9.022;2022-07-21T03:44:26;21.03;;;14.90;;
42802;SDS011;28447;48.682;9.022;2022-07-21T03:46:52;18.83;;;15.00;;
42802;SDS011;28447;48.682;9.022;2022-07-21T03:49:18;21.10;;;14.57;;
42802;SDS011;28447;48.682;9.022;2022-07-21T03:51:43;18.70;;;14.57;;
42802;SDS011;28447;48.682;9.022;2022-07-21T03:54:09;18.00;;;14.10;;
42802;SDS011;28447;48.682;9.022;2022-07-21T03:56:34;21.77;;;15.40;;
42802;SDS011;28447;48.682;9.022;2022-07-21T03:59:00;19.83;;;15.20;;
42802;SDS011;28447;48.682;9.022;2022-07-21T04:01:26;24.30;;;16.20;;
42802;SDS011;28447;48.682;9.022;2022-07-21T04:03:51;25.10;;;17.00;;
42802;SDS011;28447;48.682;9.022;2022-07-21T04:06:17;19.23;;;16.30;;
42802;SDS011;28447;48.682;9.022;2022-07-21T04:08:43;22.43;;;15.93;;
42802;SDS011;28447;48.682;9.022;2022-07-21T04:11:08;22.63;;;16.40;;
42802;SDS011;28447;48.682;9.022;2022-07-21T04:13:34;24.60;;;16.93;;
42802;SDS011;28447;48.682;9.022;2022-07-21T04:16:00;23.90;;;17.17;;
42802;SDS011;28447;48.682;9.022;2022-07-21T04:18:25;20.30;;;16.27;;
42802;SDS011;28447;48.682;9.022;2022-07-21T04:20:51;23.67;;;15.70;;
42802;SDS011;28447;48.682;9.022;2022-07-21T04:23:17;23.10;;;16.33;;
42802;SDS011;28447;48.682;9.022;2022-07-21T04:25:42;25.37;;;18.33;;
42802;SDS011;28447;48.682;9.022;2022-07-21T04:28:08;24.30;;;17.60;;
42802;SDS011;28447;48.682;9.022;2022-07-21T04:30:36;26.63;;;18.40;;
42802;SDS011;28447;48.682;9.022;2022-07-21T04:33:02;22.10;;;16.83;;
42802;SDS011;28447;48.682;9.022;2022-07-21T04:35:27;23.00;;;16.40;;
42802;SDS011;28447;48.682;9.022;2022-07-21T04:37:53;23.60;;;17.87;;
42802;SDS011;28447;48.682;9.022;2022-07-21T04:40:19;21.00;;;16.97;;
42802;SDS011;28447;48.682;9.022;2022-07-21T04:42:44;22.67;;;17.87;;
42802;SDS011;28447;48.682;9.022;2022-07-21T04:45:13;30.67;;;18.60;;
42802;SDS011;28447;48.682;9.022;2022-07-21T04:47:43;29.50;;;18.37;;
42802;SDS011;28447;48.682;9.022;2022-07-21T04:50:13;28.07;;;19.27;;
42802;SDS011;28447;48.682;9.022;2022-07-21T04:52:40;34.50;;;18.97;;
42802;SDS011;28447;48.682;9.022;2022-07-21T04:55:06;28.07;;;19.97;;
42802;SDS011;28447;48.682;9.022;2022-07-21T04:57:36;30.87;;;20.47;;
42802;SDS011;28447;48.682;9.022;2022-07-21T05:00:03;29.40;;;19.40;;
42802;SDS011;28447;48.682;9.022;2022-07-21T05:02:30;29.10;;;20.33;;
42802;SDS011;28447;48.682;9.022;2022-07-21T05:04:56;31.53;;;20.13;;
42802;SDS011;28447;48.682;9.022;2022-07-21T05:07:21;29.10;;;20.67;;
42802;SDS011;28447;48.682;9.022;2022-07-21T05:09:47;29.93;;;21.23;;
42802;SDS011;28447;48.682;9.022;2022-07-21T05:12:13;28.73;;;20.40;;
42802;SDS011;28447;48.682;9.022;2022-07-21T05:14:39;28.13;;;20.00;;
42802;SDS011;28447;48.682;9.022;2022-07-21T05:17:04;30.57;;;21.67;;
42802;SDS011;28447;48.682;9.022;2022-07-21T05:19:30;25.73;;;19.63;;
42802;SDS011;28447;48.682;9.022;2022-07-21T05:21:56;28.43;;;19.90;;
42802;SDS011;28447;48.682;9.022;2022-07-21T05:24:21;28.77;;;20.57;;
42802;SDS011;28447;48.682;9.022;2022-07-21T05:26:47;29.70;;;21.47;;
42802;SDS011;28447;48.682;9.022;2022-07-21T05:29:13;33.70;;;21.10;;
42802;SDS011;28447;48.682;9.022;2022-07-21T05:31:39;28.77;;;21.37;;
42802;SDS011;28447;48.682;9.022;2022-07-21T05:34:05;34.03;;;23.10;;
42802;SDS011;28447;48.682;9.022;2022-07-21T05:36:30;33.13;;;19.63;;
42802;SDS011;28447;48.682;9.022;2022-07-21T05:38:56;32.60;;;23.40;;
42802;SDS011;28447;48.682;9.022;2022-07-21T05:41:22;37.50;;;27.23;;
42802;SDS011;28447;48.682;9.022;2022-07-21T05:43:48;32.27;;;20.77;;
42802;SDS011;28447;48.682;9.022;2022-07-21T05:46:14;40.77;;;29.00;;
42802;SDS011;28447;48.682;9.022;2022-07-21T05:48:40;27.03;;;22.13;;
42802;SDS011;28447;48.682;9.022;2022-07-21T05:51:06;29.30;;;20.10;;
42802;SDS011;28447;48.682;9.022;2022-07-21T05:53:32;26.83;;;19.90;;
42802;SDS011;28447;48.682;9.022;2022-07-21T05:55:57;26.90;;;21.20;;
42802;SDS011;28447;48.682;9.022;2022-07-21T05:58:23;26.60;;;22.40;;
42802;SDS011;28447;48.682;9.022;2022-07-21T06:00:52;22.47;;;18.73;;
42802;SDS011;28447;48.682;9.022;2022-07-21T06:03:34;21.30;;;18.40;;
42802;SDS011;28447;48.682;9.022;2022-07-21T06:06:03;24.20;;;20.03;;
42802;SDS011;28447;48.682;9.022;2022-07-21T06:08:29;22.60;;;15.87;;
42802;SDS011;28447;48.682;9.022;2022-07-21T06:10:55;17.80;;;13.87;;
42802;SDS011;28447;48.682;9.022;2022-07-21T06:13:20;17.93;;;14.37;;
42802;SDS011;28447;48.682;9.022;2022-07-21T06:15:46;19.83;;;15.77;;
42802;SDS011;28447;48.682;9.022;2022-07-21T06:18:12;18.27;;;14.47;;
42802;SDS011;28447;48.682;9.022;2022-07-21T06:20:38;18.80;;;15.80;;
42802;SDS011;28447;48.682;9.022;2022-07-21T06:23:05;17.43;;;14.40;;
42802;SDS011;28447;48.682;9.022;2022-07-21T06:25:31;21.40;;;15.80;;
42802;SDS011;28447;48.682;9.022;2022-07-21T06:27:56;17.10;;;13.33;;
42802;SDS011;28447;48.682;9.022;2022-07-21T06:30:22;18.67;;;14.73;;
42802;SDS011;28447;48.682;9.022;2022-07-21T06:32:47;23.93;;;18.77;;
42802;SDS011;28447;48.682;9.022;2022-07-21T06:35:13;18.80;;;14.93;;
42802;SDS011;28447;48.682;9.022;2022-07-21T06:37:43;90.00;;;20.70;;
42802;SDS011;28447;48.682;9.022;2022-07-21T06:40:09;19.93;;;13.27;;
42802;SDS011;28447;48.682;9.022;2022-07-21T06:42:35;21.70;;;13.93;;
42802;SDS011;28447;48.682;9.022;2022-07-21T06:45:01;22.50;;;14.63;;
42802;SDS011;28447;48.682;9.022;2022-07-21T06:47:27;17.87;;;14.90;;
42802;SDS011;28447;48.682;9.022;2022-07-21T06:49:53;18.63;;;12.70;;
42802;SDS011;28447;48.682;9.022;2022-07-21T06:52:19;18.20;;;12.00;;
42802;SDS011;28447;48.682;9.022;2022-07-21T06:54:45;25.33;;;13.50;;
42802;SDS011;28447;48.682;9.022;2022-07-21T06:57:11;13.83;;;11.33;;
42802;SDS011;28447;48.682;9.022;2022-07-21T06:59:38;15.70;;;12.00;;
42802;SDS011;28447;48.682;9.022;2022-07-21T07:02:04;14.00;;;11.90;;
42802;SDS011;28447;48.682;9.022;2022-07-21T07:04:30;13.73;;;11.57;;
42802;SDS011;28447;48.682;9.022;2022-07-21T07:06:56;15.13;;;12.30;;
42802;SDS011;28447;48.682;9.022;2022-07-21T07:09:22;27.33;;;11.23;;
42802;SDS011;28447;48.682;9.022;2022-07-21T07:11:48;15.73;;;10.63;;
42802;SDS011;28447;48.682;9.022;2022-07-21T07:14:17;11.67;;;10.47;;
42802;SDS011;28447;48.682;9.022;2022-07-21T07:16:43;15.10;;;11.37;;
42802;SDS011;28447;48.682;9.022;2022-07-21T07:19:08;14.07;;;11.63;;
42802;SDS011;28447;48.682;9.022;2022-07-21T07:21:34;14.57;;;11.50;;
42802;SDS011;28447;48.682;9.022;2022-07-21T07:24:00;19.13;;;11.67;;
42802;SDS011;28447;48.682;9.022;2022-07-21T07:26:27;12.33;;;10.10;;
42802;SDS011;28447;48.682;9.022;2022-07-21T07:28:53;11.90;;;10.70;;
42802;SDS011;28447;48.682;9.022;2022-07-21T07:31:19;12.27;;;11.00;;
42802;SDS011;28447;48.682;9.022;2022-07-21T07:33:44;15.10;;;10.60;;
42802;SDS011;28447;48.682;9.022;2022-07-21T07:36:10;13.43;;;11.20;;
42802;SDS011;28447;48.682;9.022;2022-07-21T07:38:37;13.40;;;9.67;;
42802;SDS011;28447;48.682;9.022;2022-07-21T07:41:06;15.03;;;10.60;;
42802;SDS011;28447;48.682;9.022;2022-07-21T07:43:35;15.03;;;10.07;;
42802;SDS011;28447;48.682;9.022;2022-07-21T07:46:01;12.60;;;10.43;;
42802;SDS011;28447;48.682;9.022;2022-07-21T07:48:27;11.07;;;9.87;;
42802;SDS011;28447;48.682;9.022;2022-07-21T07:50:53;11.57;;;10.00;;
42802;SDS011;28447;48.682;9.022;2022-07-21T07:53:18;12.33;;;10.20;;
42802;SDS011;28447;48.682;9.022;2022-07-21T07:55:44;10.67;;;9.57;;
42802;SDS011;28447;48.682;9.022;2022-07-21T07:58:10;12.70;;;9.70;;
42802;SDS011;28447;48.682;9.022;2022-07-21T08:00:35;13.90;;;10.10;;
42802;SDS011;28447;48.682;9.022;2022-07-21T08:03:03;14.87;;;10.37;;
42802;SDS011;28447;48.682;9.022;2022-07-21T08:05:28;14.73;;;10.43;;
42802;SDS011;28447;48.682;9.022;2022-07-21T08:07:54;13.93;;;10.47;;
42802;SDS011;28447;48.682;9.022;2022-07-21T08:10:20;13.53;;;10.10;;
42802;SDS011;28447;48.682;9.022;2022-07-21T08:12:46;13.00;;;9.30;;
42802;SDS011;28447;48.682;9.022;2022-07-21T08:15:11;14.23;;;10.27;;
42802;SDS011;28447;48.682;9.022;2022-07-21T08:17:37;13.70;;;10.90;;
42802;SDS011;28447;48.682;9.022;2022-07-21T08:20:03;10.90;;;9.80;;
42802;SDS011;28447;48.682;9.022;2022-07-21T08:22:30;11.87;;;10.47;;
42802;SDS011;28447;48.682;9.022;2022-07-21T08:24:56;11.03;;;9.37;;
42802;SDS011;28447;48.682;9.022;2022-07-21T08:27:21;11.50;;;9.40;;
42802;SDS011;28447;48.682;9.022;2022-07-21T08:29:47;10.73;;;8.90;;
42802;SDS011;28447;48.682;9.022;2022-07-21T08:32:15;10.67;;;9.50;;
42802;SDS011;28447;48.682;9.022;2022-07-21T08:34:42;11.10;;;9.90;;
42802;SDS011;28447;48.682;9.022;2022-07-21T08:37:08;13.30;;;8.23;;
42802;SDS011;28447;48.682;9.022;2022-07-21T08:39:34;13.20;;;8.30;;
42802;SDS011;28447;48.682;9.022;2022-07-21T08:42:00;13.40;;;8.50;;
42802;SDS011;28447;48.682;9.022;2022-07-21T08:44:26;9.67;;;8.23;;
42802;SDS011;28447;48.682;9.022;2022-07-21T08:46:52;8.90;;;8.00;;
42802;SDS011;28447;48.682;9.022;2022-07-21T08:49:21;10.60;;;8.47;;
42802;SDS011;28447;48.682;9.022;2022-07-21T08:51:48;10.97;;;8.83;;
42802;SDS011;28447;48.682;9.022;2022-07-21T08:54:14;11.10;;;9.03;;
42802;SDS011;28447;48.682;9.022;2022-07-21T08:56:40;9.90;;;8.00;;
42802;SDS011;28447;48.682;9.022;2022-07-21T08:59:06;8.73;;;7.83;;
42802;SDS011;28447;48.682;9.022;2022-07-21T09:01:32;10.47;;;8.20;;
42802;SDS011;28447;48.682;9.022;2022-07-21T09:07:05;9.83;;;8.80;;
42802;SDS011;28447;48.682;9.022;2022-07-21T09:09:33;12.37;;;8.63;;
42802;SDS011;28447;48.682;9.022;2022-07-21T09:12:00;10.43;;;8.70;;
42802;SDS011;28447;48.682;9.022;2022-07-21T09:14:31;7.93;;;7.13;;
42802;SDS011;28447;48.682;9.022;2022-07-21T09:16:59;8.10;;;7.30;;
42802;SDS011;28447;48.682;9.022;2022-07-21T09:21:58;10.33;;;6.67;;
42802;SDS011;28447;48.682;9.022;2022-07-21T09:24:26;9.30;;;7.03;;
42802;SDS011;28447;48.682;9.022;2022-07-21T09:27:09;8.60;;;6.00;;
42802;SDS011;28447;48.682;9.022;2022-07-21T09:32:21;7.50;;;6.80;;
42802;SDS011;28447;48.682;9.022;2022-07-21T09:34:53;7.97;;;6.97;;
42802;SDS011;28447;48.682;9.022;2022-07-21T09:37:22;10.33;;;6.80;;
42802;SDS011;28447;48.682;9.022;2022-07-21T09:39:59;8.27;;;6.37;;
42802;SDS011;28447;48.682;9.022;2022-07-21T09:42:34;9.77;;;7.00;;
42802;SDS011;28447;48.682;9.022;2022-07-21T09:45:06;7.73;;;6.57;;
42802;SDS011;28447;48.682;9.022;2022-07-21T09:47:37;7.13;;;6.43;;
42802;SDS011;28447;48.682;9.022;2022-07-21T09:50:04;7.83;;;6.37;;
42802;SDS011;28447;48.682;9.022;2022-07-21T09:52:35;6.67;;;6.07;;
42802;SDS011;28447;48.682;9.022;2022-07-21T09:55:03;6.93;;;5.47;;
42802;SDS011;28447;48.682;9.022;2022-07-21T09:57:34;6.17;;;5.57;;
42802;SDS011;28447;48.682;9.022;2022-07-21T10:00:00;7.50;;;5.87;;
42802;SDS011;28447;48.682;9.022;2022-07-21T10:02:30;8.50;;;5.60;;
42802;SDS011;28447;48.682;9.022;2022-07-21T10:05:03;8.43;;;6.13;;
42802;SDS011;28447;48.682;9.022;2022-07-21T10:07:38;6.90;;;6.30;;
42802;SDS011;28447;48.682;9.022;2022-07-21T10:10:05;6.47;;;5.80;;
42802;SDS011;28447;48.682;9.022;2022-07-21T10:12:31;6.80;;;6.20;;
42802;SDS011;28447;48.682;9.022;2022-07-21T10:14:57;8.13;;;6.30;;
42802;SDS011;28447;48.682;9.022;2022-07-21T10:17:23;7.40;;;5.83;;
42802;SDS011;28447;48.682;9.022;2022-07-21T10:22:40;6.40;;;5.80;;
42802;SDS011;28447;48.682;9.022;2022-07-21T10:25:09;7.10;;;6.13;;
42802;SDS011;28447;48.682;9.022;2022-07-21T10:27:35;6.27;;;5.67;;
42802;SDS011;28447;48.682;9.022;2022-07-21T10:30:02;8.67;;;6.43;;
42802;SDS011;28447;48.682;9.022;2022-07-21T10:32:32;7.40;;;5.77;;
42802;SDS011;28447;48.682;9.022;2022-07-21T10:35:25;7.53;;;5.77;;
42802;SDS011;28447;48.682;9.022;2022-07-21T10:37:55;6.47;;;5.87;;
42802;SDS011;28447;48.682;9.022;2022-07-21T10:45:37;8.25;;;5.82;;
42802;SDS011;28447;48.682;9.022;2022-07-21T10:48:06;7.20;;;5.70;;
42802;SDS011;28447;48.682;9.022;2022-07-21T10:50:37;7.22;;;5.57;;
42802;SDS011;28447;48.682;9.022;2022-07-21T10:53:05;7.57;;;5.65;;
42802;SDS011;28447;48.682;9.022;2022-07-21T10:55:47;6.00;;;5.50;;
42802;SDS011;28447;48.682;9.022;2022-07-21T10:58:24;6.10;;;5.50;;
42802;SDS011;28447;48.682;9.022;2022-07-21T11:01:01;6.15;;;5.55;;
42802;SDS011;28447;48.682;9.022;2022-07-21T11:03:28;5.53;;;4.85;;
42802;SDS011;28447;48.682;9.022;2022-07-21T11:08:44;6.17;;;5.63;;
42802;SDS011;28447;48.682;9.022;2022-07-21T11:11:11;8.70;;;5.63;;
42802;SDS011;28447;48.682;9.022;2022-07-21T11:16:22;7.03;;;6.33;;
42802;SDS011;28447;48.682;9.022;2022-07-21T11:18:48;6.07;;;5.53;;
42802;SDS011;28447;48.682;9.022;2022-07-21T11:21:15;7.20;;;6.00;;
42802;SDS011;28447;48.682;9.022;2022-07-21T11:23:45;6.97;;;6.27;;
42802;SDS011;28447;48.682;9.022;2022-07-21T11:26:14;5.90;;;5.20;;
42802;SDS011;28447;48.682;9.022;2022-07-21T11:28:40;6.47;;;5.30;;
42802;SDS011;28447;48.682;9.022;2022-07-21T11:33:33;7.65;;;5.40;;
42802;SDS011;28447;48.682;9.022;2022-07-21T11:36:00;6.20;;;5.60;;
42802;SDS011;28447;48.682;9.022;2022-07-21T11:38:26;5.80;;;5.20;;
42802;SDS011;28447;48.682;9.022;2022-07-21T11:40:52;5.93;;;5.43;;
42802;SDS011;28447;48.682;9.022;2022-07-21T11:43:18;6.22;;;5.72;;
42802;SDS011;28447;48.682;9.022;2022-07-21T11:45:51;6.30;;;5.72;;
42802;SDS011;28447;48.682;9.022;2022-07-21T11:48:33;9.63;;;5.43;;
42802;SDS011;28447;48.682;9.022;2022-07-21T11:50:59;5.78;;;4.78;;
42802;SDS011;28447;48.682;9.022;2022-07-21T11:53:25;6.00;;;5.40;;
42802;SDS011;28447;48.682;9.022;2022-07-21T11:55:51;9.38;;;5.75;;
42802;SDS011;28447;48.682;9.022;2022-07-21T11:58:19;6.40;;;5.80;;
42802;SDS011;28447;48.682;9.022;2022-07-21T12:00:45;6.28;;;5.68;;
42802;SDS011;28447;48.682;9.022;2022-07-21T12:03:11;8.77;;;5.90;;
42802;SDS011;28447;48.682;9.022;2022-07-21T12:05:38;12.45;;;5.63;;
42802;SDS011;28447;48.682;9.022;2022-07-21T12:08:05;6.28;;;5.13;;
42802;SDS011;28447;48.682;9.022;2022-07-21T12:10:31;5.68;;;5.10;;
42802;SDS011;28447;48.682;9.022;2022-07-21T12:12:58;5.72;;;4.93;;
42802;SDS011;28447;48.682;9.022;2022-07-21T12:15:26;5.30;;;4.80;;
42802;SDS011;28447;48.682;9.022;2022-07-21T12:22:58;6.45;;;5.32;;
42802;SDS011;28447;48.682;9.022;2022-07-21T12:25:34;6.03;;;5.53;;
42802;SDS011;28447;48.682;9.022;2022-07-21T12:28:01;7.32;;;5.72;;
42802;SDS011;28447;48.682;9.022;2022-07-21T12:30:31;10.88;;;5.15;;
42802;SDS011;28447;48.682;9.022;2022-07-21T12:33:05;7.28;;;5.57;;
42802;SDS011;28447;48.682;9.022;2022-07-21T12:35:32;6.57;;;5.97;;
42802;SDS011;28447;48.682;9.022;2022-07-21T12:38:06;6.25;;;5.65;;
42802;SDS011;28447;48.682;9.022;2022-07-21T12:40:33;6.18;;;5.65;;
42802;SDS011;28447;48.682;9.022;2022-07-21T12:43:19;5.80;;;5.20;;
42802;SDS011;28447;48.682;9.022;2022-07-21T12:45:50;5.97;;;5.32;;
42802;SDS011;28447;48.682;9.022;2022-07-21T12:48:20;6.13;;;5.53;;
42802;SDS011;28447;48.682;9.022;2022-07-21T12:51:00;6.03;;;5.13;;
42802;SDS011;28447;48.682;9.022;2022-07-21T12:53:26;5.82;;;5.32;;
42802;SDS011;28447;48.682;9.022;2022-07-21T12:55:53;7.35;;;5.57;;
42802;SDS011;28447;48.682;9.022;2022-07-21T12:58:19;5.28;;;4.63;;
42802;SDS011;28447;48.682;9.022;2022-07-21T13:00:45;5.95;;;5.38;;
42802;SDS011;28447;48.682;9.022;2022-07-21T13:03:11;11.13;;;5.63;;
42802;SDS011;28447;48.682;9.022;2022-07-21T13:05:37;6.88;;;4.95;;
42802;SDS011;28447;48.682;9.022;2022-07-21T13:08:03;9.20;;;5.53;;
42802;SDS011;28447;48.682;9.022;2022-07-21T13:10:29;5.93;;;5.38;;
42802;SDS011;28447;48.682;9.022;2022-07-21T13:12:55;8.52;;;5.47;;
42802;SDS011;28447;48.682;9.022;2022-07-21T13:15:21;7.70;;;5.87;;
42802;SDS011;28447;48.682;9.022;2022-07-21T13:17:47;6.80;;;6.20;;
42802;SDS011;28447;48.682;9.022;2022-07-21T13:20:13;9.20;;;8.20;;
42802;SDS011;28447;48.682;9.022;2022-07-21T13:22:40;11.93;;;7.25;;
42802;SDS011;28447;48.682;9.022;2022-07-21T13:25:07;8.63;;;7.72;;
42802;SDS011;28447;48.682;9.022;2022-07-21T13:27:34;9.02;;;7.57;;
42802;SDS011;28447;48.682;9.022;2022-07-21T13:30:01;12.13;;;7.55;;
42802;SDS011;28447;48.682;9.022;2022-07-21T13:32:27;8.35;;;7.20;;
42802;SDS011;28447;48.682;9.022;2022-07-21T13:34:54;8.25;;;7.00;;
42802;SDS011;28447;48.682;9.022;2022-07-21T13:37:20;8.65;;;7.05;;
42802;SDS011;28447;48.682;9.022;2022-07-21T13:39:46;8.15;;;6.93;;
42802;SDS011;28447;48.682;9.022;2022-07-21T13:42:11;7.82;;;7.13;;
42802;SDS011;28447;48.682;9.022;2022-07-21T13:44:37;8.00;;;6.82;;
42802;SDS011;28447;48.682;9.022;2022-07-21T13:47:03;7.25;;;6.55;;
42802;SDS011;28447;48.682;9.022;2022-07-21T13:49:30;7.97;;;7.28;;
42802;SDS011;28447;48.682;9.022;2022-07-21T13:51:56;10.57;;;6.63;;
42802;SDS011;28447;48.682;9.022;2022-07-21T13:54:22;9.98;;;7.15;;
42802;SDS011;28447;48.682;9.022;2022-07-21T13:56:48;7.60;;;6.88;;
42802;SDS011;28447;48.682;9.022;2022-07-21T13:59:14;8.32;;;6.97;;
42802;SDS011;28447;48.682;9.022;2022-07-21T14:01:40;9.80;;;7.40;;
42802;SDS011;28447;48.682;9.022;2022-07-21T14:04:06;7.75;;;7.03;;
42802;SDS011;28447;48.682;9.022;2022-07-21T14:06:32;9.80;;;7.25;;
42802;SDS011;28447;48.682;9.022;2022-07-21T14:08:58;8.23;;;7.43;;
42802;SDS011;28447;48.682;9.022;2022-07-21T14:11:24;7.50;;;6.32;;
42802;SDS011;28447;48.682;9.022;2022-07-21T14:13:52;11.27;;;7.05;;
42802;SDS011;28447;48.682;9.022;2022-07-21T14:16:18;7.45;;;6.80;;
42802;SDS011;28447;48.682;9.022;2022-07-21T14:18:44;8.88;;;6.50;;
42802;SDS011;28447;48.682;9.022;2022-07-21T14:21:11;9.90;;;6.28;;
42802;SDS011;28447;48.682;9.022;2022-07-21T14:23:37;7.50;;;6.80;;
42802;SDS011;28447;48.682;9.022;2022-07-21T14:26:03;7.97;;;6.88;;
42802;SDS011;28447;48.682;9.022;2022-07-21T14:28:29;10.90;;;7.60;;
42802;SDS011;28447;48.682;9.022;2022-07-21T14:30:56;8.57;;;7.77;;
42802;SDS011;28447;48.682;9.022;2022-07-21T14:33:22;11.63;;;6.37;;
42802;SDS011;28447;48.682;9.022;2022-07-21T14:35:48;9.30;;;7.50;;
42802;SDS011;28447;48.682;9.022;2022-07-21T14:38:14;7.80;;;7.00;;
42802;SDS011;28447;48.682;9.022;2022-07-21T14:40:42;10.63;;;6.87;;
42802;SDS011;28447;48.682;9.022;2022-07-21T14:43:08;9.00;;;6.70;;
42802;SDS011;28447;48.682;9.022;2022-07-21T14:45:35;8.10;;;7.30;;
42802;SDS011;28447;48.682;9.022;2022-07-21T14:48:01;7.97;;;7.10;;
42802;SDS011;28447;48.682;9.022;2022-07-21T14:50:27;7.90;;;6.63;;
42802;SDS011;28447;48.682;9.022;2022-07-21T14:52:57;7.37;;;6.67;;
42802;SDS011;28447;48.682;9.022;2022-07-21T14:55:23;7.40;;;6.20;;
42802;SDS011;28447;48.682;9.022;2022-07-21T14:57:50;8.33;;;6.37;;
42802;SDS011;28447;48.682;9.022;2022-07-21T15:00:16;8.10;;;6.35;;
42802;SDS011;28447;48.682;9.022;2022-07-21T15:02:43;7.30;;;6.50;;
42802;SDS011;28447;48.682;9.022;2022-07-21T15:05:09;7.40;;;5.93;;